createdAt,value
2022-09-20T00:03:56.524Z,101132.69
2022-09-20T00:06:26.428Z,101130.94
2022-09-20T00:08:53.275Z,101136.09
2022-09-20T00:11:23.591Z,101136.97
2022-09-20T00:13:53.119Z,101137.84
2022-09-20T00:16:25.811Z,101130.91
2022-09-20T00:18:56.445Z,101136.06
2022-09-20T00:21:28.026Z,101136.97
2022-09-20T00:23:58.684Z,101135.22
2022-09-20T00:26:28.541Z,101136.06
2022-09-20T00:28:58.756Z,101138.66
2022-09-20T00:31:27.687Z,101141.28
2022-09-20T00:34:17.105Z,101139.53
2022-09-20T00:36:45.502Z,101143.84
2022-09-20T00:39:15.491Z,101142.97
2022-09-20T00:41:42.647Z,101140.38
2022-09-20T00:44:47.898Z,101142.88
2022-09-20T00:47:24.498Z,101142.94
2022-09-20T00:49:52.395Z,101142.72
2022-09-20T00:52:19.640Z,101149.78
2022-09-20T00:54:46.952Z,101149.78
2022-09-20T00:57:13.706Z,101144.59
2022-09-20T00:59:44.473Z,101144.59
2022-09-20T01:02:16.769Z,101154.09
2022-09-20T01:04:45.157Z,101155.75
2022-09-20T01:07:15.940Z,101160.81
2022-09-20T01:09:42.613Z,101158.16
2022-09-20T01:12:15.077Z,101161.56
2022-09-20T01:14:43.588Z,101151.13
2022-09-20T01:17:11.600Z,101157.16
2022-09-20T01:22:27.721Z,101154.59
2022-09-20T01:30:19.965Z,101152.06
2022-09-20T01:33:12.231Z,101158.06
2022-09-20T01:35:41.571Z,101148.66
2022-09-20T01:38:48.424Z,101146.00
2022-09-20T01:41:24.619Z,101143.47
2022-09-20T01:46:54.915Z,101138.25
2022-09-20T01:49:59.923Z,101139.91
2022-09-20T01:53:00.879Z,101132.09
2022-09-20T02:15:56.285Z,101139.22
2022-09-20T02:19:02.125Z,101144.34
2022-09-20T02:21:39.425Z,101140.09
2022-09-20T02:24:37.918Z,101145.28
2022-09-20T02:27:30.742Z,101139.28
2022-09-20T02:35:30.208Z,101134.28
2022-09-20T02:43:26.356Z,101132.59
2022-09-20T02:48:38.222Z,101129.19
2022-09-20T02:51:20.311Z,101124.03
2022-09-20T03:02:32.051Z,101127.03
2022-09-20T03:08:17.633Z,101125.94
2022-09-20T03:16:57.724Z,101117.25
2022-09-20T03:39:40.147Z,101110.50
2022-09-20T03:56:39.836Z,101106.19
2022-09-20T03:59:37.450Z,101102.75
2022-09-20T04:02:24.959Z,101103.63
2022-09-20T04:10:51.640Z,101105.41
2022-09-20T04:13:35.727Z,101101.06
2022-09-20T04:19:06.843Z,101101.06
2022-09-20T04:24:21.385Z,101098.53
2022-09-20T04:26:52.442Z,101098.53
2022-09-20T04:29:32.523Z,101091.56
2022-09-20T04:32:28.238Z,101094.16
2022-09-20T04:37:39.719Z,101092.47
2022-09-20T04:43:37.803Z,101091.56
2022-09-20T05:00:24.399Z,101085.59
2022-09-20T05:17:41.536Z,101082.00
2022-09-20T05:23:25.630Z,101084.53
2022-09-20T05:29:10.146Z,101081.91
2022-09-20T05:31:52.910Z,101096.59
2022-09-20T05:34:44.928Z,101100.84
2022-09-20T05:40:06.468Z,101103.91
2022-09-20T05:42:42.160Z,101102.75
2022-09-20T05:45:40.727Z,101106.94
2022-09-20T05:48:18.025Z,101106.97
2022-09-20T06:09:58.178Z,101127.63
2022-09-20T06:13:04.716Z,101141.50
2022-09-20T06:23:28.388Z,101150.25
2022-09-20T06:28:35.203Z,101155.50
2022-09-20T06:31:06.073Z,101152.09
2022-09-20T06:33:33.192Z,101147.84
2022-09-20T06:36:49.508Z,101157.38
2022-09-20T06:40:07.138Z,101157.41
2022-09-20T06:42:33.696Z,101160.13
2022-09-20T06:45:00.328Z,101156.72
2022-09-20T06:47:27.102Z,101150.75
2022-09-20T06:49:53.773Z,101152.53
2022-09-20T06:52:23.021Z,101162.09
2022-09-20T06:54:53.985Z,101159.59
2022-09-20T06:57:38.450Z,101152.69
2022-09-20T07:00:07.000Z,101154.53
2022-09-20T07:02:33.657Z,101152.88
2022-09-20T07:05:00.307Z,101143.41
2022-09-20T07:07:27.023Z,101149.53
2022-09-20T07:09:53.614Z,101146.13
2022-09-20T07:12:21.224Z,101154.81
2022-09-20T07:14:47.869Z,101146.22
2022-09-20T07:17:14.767Z,101158.41
2022-09-20T07:19:41.430Z,101152.41
2022-09-20T07:22:07.999Z,101153.31
2022-09-20T07:24:34.847Z,101158.56
2022-09-20T07:27:04.309Z,101153.38
2022-09-20T07:29:31.583Z,101160.38
2022-09-20T07:31:58.801Z,101154.31
2022-09-20T07:34:25.740Z,101157.84
2022-09-20T07:36:52.375Z,101155.25
2022-09-20T07:39:19.071Z,101163.97
2022-09-20T07:41:48.556Z,101162.25
2022-09-20T07:44:31.159Z,101165.78
2022-09-20T07:46:59.405Z,101164.09
2022-09-20T07:49:28.710Z,101168.44
2022-09-20T07:51:55.304Z,101171.06
2022-09-20T07:54:21.869Z,101164.13
2022-09-20T07:56:48.997Z,101169.34
2022-09-20T07:59:16.124Z,101171.97
2022-09-20T08:01:43.117Z,101169.38
2022-09-20T08:04:10.962Z,101185.03
2022-09-20T08:06:40.480Z,101178.94
2022-09-20T08:09:11.161Z,101178.09
2022-09-20T08:11:39.800Z,101183.28
2022-09-20T08:14:08.849Z,101191.97
2022-09-20T08:16:40.143Z,101189.34
2022-09-20T08:19:07.512Z,101193.69
2022-09-20T08:21:35.787Z,101186.72
2022-09-20T08:24:04.068Z,101190.09
2022-09-20T08:26:31.673Z,101192.56
2022-09-20T08:28:59.924Z,101189.75
2022-09-20T08:31:31.486Z,101193.81
2022-09-20T08:33:59.237Z,101200.28
2022-09-20T08:36:26.464Z,101190.94
2022-09-20T08:41:46.632Z,101202.88
2022-09-20T08:47:04.449Z,101205.75
2022-09-20T08:49:31.384Z,101211.94
2022-09-20T08:52:03.532Z,101214.59
2022-09-20T08:54:33.535Z,101219.72
2022-09-20T08:57:10.860Z,101222.25
2022-09-20T08:59:37.428Z,101222.88
2022-09-20T09:02:09.476Z,101217.03
2022-09-20T09:04:36.537Z,101213.03
2022-09-20T09:07:04.297Z,101214.13
2022-09-20T09:09:37.639Z,101218.19
2022-09-20T09:12:05.188Z,101224.22
2022-09-20T09:14:54.835Z,101213.47
2022-09-20T09:17:27.585Z,101214.22
2022-09-20T09:19:56.709Z,101221.56
2022-09-20T09:22:32.208Z,101224.38
2022-09-20T09:30:38.121Z,101220.56
2022-09-20T09:38:39.201Z,101216.13
2022-09-20T09:41:26.162Z,101216.47
2022-09-20T09:46:40.792Z,101218.97
2022-09-20T09:49:26.469Z,101219.13
2022-09-20T09:54:39.132Z,101218.13
2022-09-20T10:00:17.389Z,101215.94
2022-09-20T10:11:17.995Z,101216.56
2022-09-20T10:22:18.544Z,101226.53
2022-09-20T10:27:57.482Z,101215.94
2022-09-20T10:30:31.985Z,101220.13
2022-09-20T10:41:53.829Z,101218.22
2022-09-20T10:47:20.371Z,101219.16
2022-09-20T10:50:15.760Z,101223.88
2022-09-20T10:53:09.199Z,101215.59
2022-09-20T10:56:15.754Z,101219.69
2022-09-20T11:09:32.418Z,101217.28
2022-09-20T11:12:12.492Z,101221.72
2022-09-20T11:14:51.092Z,101215.56
2022-09-20T11:17:26.979Z,101213.63
2022-09-20T11:20:31.622Z,101216.28
2022-09-20T11:25:48.572Z,101205.09
2022-09-20T11:28:44.885Z,101211.56
2022-09-20T11:33:56.453Z,101205.00
2022-09-20T11:36:34.272Z,101217.84
2022-09-20T11:41:38.100Z,101212.13
2022-09-20T11:44:10.051Z,101211.19
2022-09-20T11:46:42.397Z,101218.28
2022-09-20T11:49:19.141Z,101211.28
2022-09-20T11:57:15.789Z,101201.69
2022-09-20T11:59:51.039Z,101204.00
2022-09-20T12:02:30.184Z,101200.41
2022-09-20T12:04:57.685Z,101195.97
2022-09-20T12:07:43.735Z,101202.09
2022-09-20T12:10:28.788Z,101199.66
2022-09-20T12:12:59.582Z,101204.06
2022-09-20T12:18:09.615Z,101200.38
2022-09-20T12:26:38.426Z,101197.47
2022-09-20T12:32:02.706Z,101192.81
2022-09-20T12:34:36.278Z,101190.50
2022-09-20T12:39:50.106Z,101187.41
2022-09-20T12:42:28.924Z,101192.84
2022-09-20T12:45:01.469Z,101192.84
2022-09-20T12:47:32.201Z,101191.22
2022-09-20T12:50:21.509Z,101193.84
2022-09-20T12:53:07.951Z,101188.69
2022-09-20T12:55:43.902Z,101191.50
2022-09-20T13:11:24.277Z,101190.50
2022-09-20T13:13:58.217Z,101181.78
2022-09-20T13:25:02.872Z,101179.59
2022-09-20T13:27:34.617Z,101187.53
2022-09-20T13:32:47.102Z,101177.03
2022-09-20T13:35:19.104Z,101170.03
2022-09-20T13:43:22.563Z,101180.16
2022-09-20T13:45:56.279Z,101185.50
2022-09-20T13:48:27.700Z,101183.78
2022-09-20T13:50:55.152Z,101189.13
2022-09-20T13:53:40.613Z,101180.50
2022-09-20T13:58:53.807Z,101183.97
2022-09-20T14:01:27.870Z,101175.13
2022-09-20T14:03:55.205Z,101173.31
2022-09-20T14:06:28.258Z,101169.75
2022-09-20T14:08:56.080Z,101169.69
2022-09-20T14:11:25.505Z,101173.16
2022-09-20T14:13:54.887Z,101167.91
2022-09-20T14:16:24.782Z,101175.78
2022-09-20T14:18:52.279Z,101169.69
2022-09-20T14:21:24.203Z,101171.41
2022-09-20T14:26:33.606Z,101178.47
2022-09-20T14:29:29.650Z,101168.97
2022-09-20T14:31:57.894Z,101164.59
2022-09-20T14:34:24.537Z,101162.88
2022-09-20T14:36:51.347Z,101162.94
2022-09-20T14:39:19.186Z,101166.50
2022-09-20T14:41:46.633Z,101159.59
2022-09-20T14:44:33.783Z,101163.28
2022-09-20T14:47:13.072Z,101162.38
2022-09-20T14:49:43.339Z,101154.63
2022-09-20T14:57:39.879Z,101155.56
2022-09-20T15:00:15.941Z,101149.47
2022-09-20T15:02:43.512Z,101147.97
2022-09-20T15:05:20.631Z,101151.19
2022-09-20T15:07:47.751Z,101151.06
2022-09-20T15:10:15.348Z,101148.31
2022-09-20T15:12:43.017Z,101150.75
2022-09-20T15:15:17.559Z,101150.63
2022-09-20T15:17:45.635Z,101145.31
2022-09-20T15:20:18.686Z,101143.44
2022-09-20T15:22:50.280Z,101143.38
2022-09-20T15:25:19.372Z,101150.28
2022-09-20T15:27:46.625Z,101138.03
2022-09-20T15:30:17.059Z,101136.19
2022-09-20T15:32:44.628Z,101141.38
2022-09-20T15:35:11.895Z,101137.84
2022-09-20T15:37:38.649Z,101139.50
2022-09-20T15:40:06.838Z,101139.41
2022-09-20T15:42:37.945Z,101142.06
2022-09-20T15:45:08.992Z,101142.94
2022-09-20T15:47:37.620Z,101135.97
2022-09-20T15:50:07.529Z,101136.03
2022-09-20T15:52:36.779Z,101139.59
2022-09-20T15:55:04.210Z,101129.13
2022-09-20T15:57:32.011Z,101132.56
2022-09-20T15:59:59.495Z,101132.44
2022-09-20T16:02:27.024Z,101139.34
2022-09-20T16:04:55.897Z,101135.72
2022-09-20T16:07:25.738Z,101125.94
2022-09-20T16:09:54.369Z,101123.19
2022-09-20T16:12:23.116Z,101129.25
2022-09-20T16:14:50.097Z,101131.84
2022-09-20T16:17:17.797Z,101126.47
2022-09-20T16:19:46.426Z,101125.59
2022-09-20T16:22:13.019Z,101124.78
2022-09-20T16:24:39.606Z,101129.19
2022-09-20T16:27:08.510Z,101126.56
2022-09-20T16:29:35.101Z,101121.38
2022-09-20T16:32:03.715Z,101128.56
2022-09-20T16:34:32.811Z,101137.50
2022-09-20T16:37:01.925Z,101139.41
2022-09-20T16:39:30.423Z,101135.28
2022-09-20T16:42:03.580Z,101130.13
2022-09-20T16:44:31.976Z,101131.97
2022-09-20T16:46:58.537Z,101138.19
2022-09-20T16:49:28.839Z,101133.00
2022-09-20T16:51:56.090Z,101132.19
2022-09-20T16:54:22.953Z,101136.69
2022-09-20T16:56:51.209Z,101141.13
2022-09-20T16:59:21.373Z,101137.75
2022-09-20T17:01:48.767Z,101143.16
2022-09-20T17:04:18.443Z,101138.84
2022-09-20T17:06:45.947Z,101146.84
2022-09-20T17:09:13.997Z,101145.16
2022-09-20T17:11:45.919Z,101143.47
2022-09-20T17:14:13.989Z,101147.16
2022-09-20T17:16:42.365Z,101147.31
2022-09-20T17:19:13.225Z,101149.19
2022-09-20T17:21:43.731Z,101149.34
2022-09-20T17:24:10.323Z,101145.13
2022-09-20T17:26:40.318Z,101150.53
2022-09-20T17:29:09.920Z,101146.31
2022-09-20T17:31:37.921Z,101147.84
2022-09-20T17:34:07.800Z,101149.44
2022-09-20T17:36:39.713Z,101154.84
2022-09-20T17:39:10.083Z,101159.34
2022-09-20T17:41:37.481Z,101155.16
2022-09-20T17:44:12.229Z,101164.91
2022-09-20T17:46:40.848Z,101158.94
2022-09-20T17:49:11.330Z,101166.94
2022-09-20T17:51:47.264Z,101157.47
2022-09-20T17:54:14.443Z,101170.72
2022-09-20T17:56:43.621Z,101169.97
2022-09-20T17:59:11.854Z,101167.38
2022-09-20T18:01:40.284Z,101171.88
2022-09-20T18:04:08.404Z,101171.97
2022-09-20T18:06:37.820Z,101171.19
2022-09-20T18:09:07.273Z,101171.31
2022-09-20T18:11:38.214Z,101167.00
2022-09-20T18:14:06.804Z,101169.72
2022-09-20T18:16:35.100Z,101175.03
2022-09-20T18:19:01.885Z,101170.75
2022-09-20T18:21:31.090Z,101173.47
2022-09-20T18:23:58.028Z,101177.91
2022-09-20T18:26:30.041Z,101182.31
2022-09-20T18:31:37.194Z,101175.44
2022-09-20T18:34:06.269Z,101180.72
2022-09-20T18:36:36.210Z,101189.50
2022-09-20T18:39:03.158Z,101187.81
2022-09-20T18:41:33.004Z,101187.84
2022-09-20T18:44:00.755Z,101189.59
2022-09-20T18:46:30.793Z,101187.03
2022-09-20T18:49:00.086Z,101190.59
2022-09-20T18:51:29.302Z,101194.16
2022-09-20T18:53:57.022Z,101193.38
2022-09-20T18:59:06.367Z,101196.09
2022-09-20T19:09:43.305Z,101194.38
2022-09-20T19:20:42.321Z,101178.94
2022-09-20T19:26:24.930Z,101188.66
2022-09-20T19:28:55.253Z,101194.84
2022-09-20T19:31:26.214Z,101191.41
2022-09-20T19:33:54.953Z,101193.19
2022-09-20T19:36:23.433Z,101188.00
2022-09-20T19:39:19.848Z,101192.47
2022-09-20T19:41:59.829Z,101191.63
2022-09-20T19:50:15.851Z,101196.13
2022-09-20T19:52:44.079Z,101206.59
2022-09-20T19:55:12.589Z,101207.47
2022-09-20T19:57:43.433Z,101204.91
2022-09-20T20:00:15.287Z,101204.94
2022-09-20T20:02:44.249Z,101209.31
2022-09-20T20:05:13.127Z,101205.88
2022-09-20T20:07:49.191Z,101214.66
2022-09-20T20:15:53.925Z,101221.34
2022-09-20T20:21:24.665Z,101226.88
2022-09-20T20:26:28.179Z,101227.00
2022-09-20T20:28:54.736Z,101224.41
2022-09-20T20:31:21.675Z,101216.59
2022-09-20T20:33:48.648Z,101221.00
2022-09-20T20:36:19.252Z,101219.25
2022-09-20T20:38:50.977Z,101214.94
2022-09-20T20:41:21.433Z,101224.56
2022-09-20T20:43:51.849Z,101216.72
2022-09-20T20:46:19.482Z,101226.31
2022-09-20T20:48:47.839Z,101220.25
2022-09-20T20:51:17.825Z,101223.75
2022-09-20T20:53:49.600Z,101213.31
2022-09-20T20:56:20.089Z,101220.31
2022-09-20T20:58:47.801Z,101222.09
2022-09-20T21:01:17.426Z,101222.94
2022-09-20T21:03:47.415Z,101222.09
2022-09-20T21:06:15.629Z,101222.13
2022-09-20T21:08:48.848Z,101225.63
2022-09-20T21:11:23.430Z,101226.53
2022-09-20T21:13:51.716Z,101224.78
2022-09-20T21:16:21.526Z,101233.53
2022-09-20T21:18:49.740Z,101230.91
2022-09-20T21:24:04.308Z,101231.81
2022-09-20T21:26:32.243Z,101227.50
2022-09-20T21:29:01.521Z,101237.94
2022-09-20T21:31:31.518Z,101231.00
2022-09-20T21:33:58.475Z,101231.00
2022-09-20T21:36:29.824Z,101228.38
2022-09-20T21:38:56.651Z,101236.25
2022-09-20T21:41:25.754Z,101236.28
2022-09-20T21:43:55.321Z,101231.94
2022-09-20T21:46:25.748Z,101226.72
2022-09-20T21:48:52.405Z,101228.47
2022-09-20T21:51:20.571Z,101233.69
2022-09-20T21:53:49.253Z,101226.75
2022-09-20T21:56:17.684Z,101226.75
2022-09-20T21:58:45.986Z,101227.66
2022-09-20T22:01:15.359Z,101231.16
2022-09-20T22:03:44.554Z,101229.44
2022-09-20T22:08:58.511Z,101232.06
2022-09-20T22:11:29.570Z,101234.69
2022-09-20T22:13:56.640Z,101231.22
2022-09-20T22:16:28.471Z,101234.72
2022-09-20T22:18:56.040Z,101235.63
2022-09-20T22:24:01.720Z,101230.06
2022-09-20T22:26:32.199Z,101233.78
2022-09-20T22:28:59.078Z,101225.97
2022-09-20T22:31:28.485Z,101240.84
2022-09-20T22:33:57.622Z,101237.38
2022-09-20T22:36:29.585Z,101233.91
2022-09-20T22:38:56.392Z,101232.19
2022-09-20T22:41:23.983Z,101236.53
2022-09-20T22:43:50.793Z,101235.69
2022-09-20T22:46:21.343Z,101238.31
2022-09-20T22:48:48.599Z,101239.19
2022-09-20T22:51:17.564Z,101233.97
2022-09-20T22:53:45.111Z,101241.84
2022-09-20T22:56:14.885Z,101237.47
2022-09-20T22:58:42.839Z,101235.88
2022-09-20T23:01:12.847Z,101239.25
2022-09-20T23:03:41.348Z,101240.16
2022-09-20T23:08:52.547Z,101245.38
2022-09-20T23:11:20.270Z,101248.84
2022-09-20T23:13:47.144Z,101241.88
2022-09-20T23:18:50.785Z,101236.69
2022-09-20T23:21:18.016Z,101241.94
2022-09-20T23:23:45.621Z,101236.72
2022-09-20T23:26:16.105Z,101239.34
2022-09-20T23:28:46.765Z,101239.34
2022-09-20T23:31:16.373Z,101240.19
2022-09-20T23:33:47.787Z,101238.47
2022-09-20T23:36:15.763Z,101235.88
2022-09-20T23:38:42.327Z,101236.75
2022-09-20T23:41:12.247Z,101236.75
2022-09-20T23:43:39.986Z,101235.03
2022-09-20T23:46:07.422Z,101228.91
2022-09-20T23:48:36.359Z,101224.56
2022-09-20T23:51:04.626Z,101229.78
2022-09-20T23:53:31.902Z,101227.19
2022-09-20T23:55:58.471Z,101227.19
2022-09-20T23:58:25.048Z,101222.84
